Terminal Aerodrome Forecast
Issued by NWS

Home | Current Version | Previous Version | Text Only | Print | Product List | Glossary Off
Versions: 1 2 3 4 5 6 7 8 9 10 11 12

000
FTUS43 KIWX 191100
TAFSBN
TAF
KSBN 191130Z 1912/2012 30013KT P6SM OVC035
      TEMPO 1912/1916 OVC028
     FM191600 32013G20KT P6SM BKN035
     FM192200 33008KT P6SM FEW035
     FM200600 35003KT P6SM SCT200=

USA.gov is the U.S. government's official web portal to all federal, state and local government web resources and services.